Thunder radar more information blitzortung!


Radar de pluja more information rain snow radar


Visita la nostra xarxa de llocs de meteo:

Template documentation
and downloads

And another site



No particular awareness of the weather is required.    There are no Weather-warnings

Pagina Historial Weather Underground text

Diari Resum Desembre 7, 2017 Unitats:  Tant    Imperial   Mètric
« Previous Dia
SegĂźent Dia »
Diari Setmana Mensual Anual Personalitzada
  Maxima: Minima: Media:
Temperatura: 53.4 °F /  11.9 °C 33.6 °F /  0.9 °C 45.7 °F /  7.6 °C
Punt de rosada: 38.7 °F /  3.7 °C 26.2 °F /  -3.2 °C 32.7 °F /  0.4 °C
Humitat: 77 % 55 % 61 %
Wind Speed: 4.6 mph /  7.4 km/h - 1.7 mph /  2.7 km/h
RĂ fegues de vent: 4.6 mph /  7.4 km/h - -
Vent:- - SSE
Pression baro: 30.5 in /  1032.1 hPa 30.3 in /  1026.0 hPa -
Precipitacions: 0 in /  0.0 mm    
Historical Graphs
 
 
Dades de taula per Desembre 7, 2017
Temps Temperatura Punt de rosada Pression baro Vent Wind Speed RĂ fegues de vent Humitat Rainfall Rate (Hourly)
00:02 37.4 °F /  3.0 °C 28.9 °F /  -1.7 °C 30.5 in /  1032.1 hPa NNE 2.3 mph /  3.7 km/h 2.3 mph /  3.7 km/h 71 % 0 in /  0.0 mm
00:05 34.3 °F /  1.3 °C 27 °F /  -2.8 °C 30.4 in /  1030.0 hPa WNW 1 mph /  1.6 km/h 2 mph /  3.2 km/h 74 % 0 in /  0.0 mm
00:07 37.4 °F /  3.0 °C 28.9 °F /  -1.7 °C 30.5 in /  1032.1 hPa NNE 2.3 mph /  3.7 km/h 2.3 mph /  3.7 km/h 71 % 0 in /  0.0 mm
00:15 34.3 °F /  1.3 °C 27.1 °F /  -2.7 °C 30.4 in /  1030.0 hPa Calm   2 mph /  3.2 km/h 75 % 0 in /  0.0 mm
00:25 34.3 °F /  1.3 °C 27.1 °F /  -2.7 °C 30.4 in /  1030.7 hPa WSW 2 mph /  3.2 km/h 2 mph /  3.2 km/h 75 % 0 in /  0.0 mm
00:35 34.3 °F /  1.3 °C 27.1 °F /  -2.7 °C 30.4 in /  1030.0 hPa Calm   1 mph /  1.6 km/h 75 % 0 in /  0.0 mm
00:45 34.2 °F /  1.2 °C 27.1 °F /  -2.7 °C 30.4 in /  1030.0 hPa Calm   1 mph /  1.6 km/h 75 % 0 in /  0.0 mm
00:55 34.2 °F /  1.2 °C 27.1 °F /  -2.7 °C 30.4 in /  1030.0 hPa Calm   1 mph /  1.6 km/h 75 % 0 in /  0.0 mm
01:05 34.3 °F /  1.3 °C 27.7 °F /  -2.4 °C 30.4 in /  1030.0 hPa Calm     76 % 0 in /  0.0 mm
01:15 34.3 °F /  1.3 °C 27.7 °F /  -2.4 °C 30.4 in /  1030.0 hPa Calm     76 % 0 in /  0.0 mm
01:25 34.2 °F /  1.2 °C 27.3 °F /  -2.6 °C 30.4 in /  1030.0 hPa Calm     76 % 0 in /  0.0 mm
01:35 34 °F /  1.1 °C 27.1 °F /  -2.7 °C 30.4 in /  1030.0 hPa Calm   1 mph /  1.6 km/h 76 % 0 in /  0.0 mm
01:45 33.8 °F /  1.0 °C 27 °F /  -2.8 °C 30.4 in /  1030.0 hPa Calm     76 % 0 in /  0.0 mm
01:55 33.8 °F /  1.0 °C 27 °F /  -2.8 °C 30.4 in /  1030.0 hPa NNW 1 mph /  1.6 km/h 2 mph /  3.2 km/h 76 % 0 in /  0.0 mm
02:05 33.8 °F /  1.0 °C 27 °F /  -2.8 °C 30.4 in /  1030.0 hPa North 1 mph /  1.6 km/h 1 mph /  1.6 km/h 76 % 0 in /  0.0 mm
02:15 33.8 °F /  1.0 °C 27 °F /  -2.8 °C 30.4 in /  1030.0 hPa Calm     76 % 0 in /  0.0 mm
02:25 33.6 °F /  0.9 °C 27 °F /  -2.8 °C 30.4 in /  1030.0 hPa Calm     76 % 0 in /  0.0 mm
02:35 33.8 °F /  1.0 °C 27 °F /  -2.8 °C 30.4 in /  1030.0 hPa Calm     76 % 0 in /  0.0 mm
02:45 34.3 °F /  1.3 °C 27.9 °F /  -2.3 °C 30.4 in /  1030.0 hPa NNE 1 mph /  1.6 km/h 2 mph /  3.2 km/h 77 % 0 in /  0.0 mm
02:55 35.4 °F /  1.9 °C 28.9 °F /  -1.7 °C 30.4 in /  1030.0 hPa Calm   1 mph /  1.6 km/h 77 % 0 in /  0.0 mm
03:05 36.3 °F /  2.4 °C 29.8 °F /  -1.2 °C 30.4 in /  1030.0 hPa ENE 1 mph /  1.6 km/h 1 mph /  1.6 km/h 77 % 0 in /  0.0 mm
03:15 36.1 °F /  2.3 °C 29.3 °F /  -1.5 °C 30.4 in /  1030.0 hPa ENE 2 mph /  3.2 km/h 2 mph /  3.2 km/h 76 % 0 in /  0.0 mm
03:25 37 °F /  2.8 °C 30.2 °F /  -1.0 °C 30.4 in /  1030.7 hPa East 1 mph /  1.6 km/h 2 mph /  3.2 km/h 76 % 0 in /  0.0 mm
03:35 37.2 °F /  2.9 °C 30 °F /  -1.1 °C 30.4 in /  1030.7 hPa East 2 mph /  3.2 km/h 2 mph /  3.2 km/h 75 % 0 in /  0.0 mm
03:45 36.9 °F /  2.7 °C 29.3 °F /  -1.5 °C 30.4 in /  1030.7 hPa Calm   2 mph /  3.2 km/h 74 % 0 in /  0.0 mm
03:55 37.6 °F /  3.1 °C 30 °F /  -1.1 °C 30.4 in /  1030.7 hPa ESE 1 mph /  1.6 km/h 2 mph /  3.2 km/h 74 % 0 in /  0.0 mm
04:05 38.7 °F /  3.7 °C 30.7 °F /  -0.7 °C 30.4 in /  1030.7 hPa Calm   2 mph /  3.2 km/h 73 % 0 in /  0.0 mm
04:15 39.4 °F /  4.1 °C 31.1 °F /  -0.5 °C 30.4 in /  1030.7 hPa ESE 2 mph /  3.2 km/h 2 mph /  3.2 km/h 72 % 0 in /  0.0 mm
04:25 39.7 °F /  4.3 °C 31.5 °F /  -0.3 °C 30.4 in /  1030.7 hPa SSW 1 mph /  1.6 km/h 2 mph /  3.2 km/h 72 % 0 in /  0.0 mm
04:35 39.9 °F /  4.4 °C 30.9 °F /  -0.6 °C 30.4 in /  1030.7 hPa SSW 2 mph /  3.2 km/h 2 mph /  3.2 km/h 70 % 0 in /  0.0 mm
10:44 40.8 °F /  4.9 °C 31.5 °F /  -0.3 °C 30.4 in /  1030.7 hPa SW 1.6 mph /  2.6 km/h 1.6 mph /  2.6 km/h 69 % 0 in /  0.0 mm
10:45 40.8 °F /  4.9 °C 31.5 °F /  -0.3 °C 30.4 in /  1030.7 hPa SW 1.6 mph /  2.6 km/h 1.6 mph /  2.6 km/h 69 % 0 in /  0.0 mm
10:50 40.5 °F /  4.7 °C 31.1 °F /  -0.5 °C 30.4 in /  1030.7 hPa WSW 1.2 mph /  1.9 km/h 1.2 mph /  1.9 km/h 69 % 0 in /  0.0 mm
10:55 40.6 °F /  4.8 °C 31.3 °F /  -0.4 °C 30.4 in /  1030.7 hPa WSW 1.2 mph /  1.9 km/h   69 % 0 in /  0.0 mm
11:00 40.6 °F /  4.8 °C 31.3 °F /  -0.4 °C 30.5 in /  1032.1 hPa Calm     69 % 0 in /  0.0 mm
11:05 41 °F /  5.0 °C 31.6 °F /  -0.2 °C 30.5 in /  1032.1 hPa ENE 1.4 mph /  2.3 km/h 1.4 mph /  2.3 km/h 69 % 0 in /  0.0 mm
11:10 41.5 °F /  5.3 °C 32.2 °F /  0.1 °C 30.5 in /  1032.1 hPa ESE 2.3 mph /  3.7 km/h 2.3 mph /  3.7 km/h 69 % 0 in /  0.0 mm
11:15 42.4 °F /  5.8 °C 33.1 °F /  0.6 °C 30.4 in /  1030.7 hPa NNE 1.2 mph /  1.9 km/h   69 % 0 in /  0.0 mm
11:20 43.5 °F /  6.4 °C 33.6 °F /  0.9 °C 30.4 in /  1030.7 hPa East 2 mph /  3.2 km/h 2 mph /  3.2 km/h 68 % 0 in /  0.0 mm
11:25 44.2 °F /  6.8 °C 34.3 °F /  1.3 °C 30.4 in /  1030.7 hPa East 2.4 mph /  3.9 km/h 2.4 mph /  3.9 km/h 68 % 0 in /  0.0 mm
11:30 43.7 °F /  6.5 °C 33.1 °F /  0.6 °C 30.4 in /  1030.7 hPa ENE 3.5 mph /  5.6 km/h 3.5 mph /  5.6 km/h 66 % 0 in /  0.0 mm
11:35 44.4 °F /  6.9 °C 34.2 °F /  1.2 °C 30.4 in /  1030.7 hPa ENE 2.4 mph /  3.9 km/h 2.4 mph /  3.9 km/h 67 % 0 in /  0.0 mm
11:40 44.6 °F /  7.0 °C 34 °F /  1.1 °C 30.4 in /  1030.7 hPa East 3.1 mph /  5.0 km/h 3.1 mph /  5.0 km/h 66 % 0 in /  0.0 mm
11:45 45.1 °F /  7.3 °C 34.5 °F /  1.4 °C 30.4 in /  1030.0 hPa East 2.3 mph /  3.7 km/h 2.3 mph /  3.7 km/h 66 % 0 in /  0.0 mm
11:50 46 °F /  7.8 °C 35.2 °F /  1.8 °C 30.4 in /  1030.0 hPa Calm   2 mph /  3.2 km/h 66 % 0 in /  0.0 mm
11:55 46.4 °F /  8.0 °C 35.2 °F /  1.8 °C 30.4 in /  1030.0 hPa NNE 2.4 mph /  3.9 km/h 2.4 mph /  3.9 km/h 65 % 0 in /  0.0 mm
12:00 46.9 °F /  8.3 °C 35.4 °F /  1.9 °C 30.4 in /  1030.7 hPa NNE 1.2 mph /  1.9 km/h   64 % 0 in /  0.0 mm
12:05 47.3 °F /  8.5 °C 35.8 °F /  2.1 °C 30.4 in /  1030.7 hPa NE 2 mph /  3.2 km/h 2 mph /  3.2 km/h 64 % 0 in /  0.0 mm
12:10 47.7 °F /  8.7 °C 35.8 °F /  2.1 °C 30.4 in /  1030.7 hPa ENE 2.3 mph /  3.7 km/h 2.3 mph /  3.7 km/h 63 % 0 in /  0.0 mm
12:15 47.7 °F /  8.7 °C 35.8 °F /  2.1 °C 30.4 in /  1030.0 hPa NNE 2.3 mph /  3.7 km/h 2.3 mph /  3.7 km/h 63 % 0 in /  0.0 mm
12:20 48.2 °F /  9.0 °C 36.1 °F /  2.3 °C 30.4 in /  1030.0 hPa NNE 2.3 mph /  3.7 km/h 2.3 mph /  3.7 km/h 63 % 0 in /  0.0 mm
12:25 48.2 °F /  9.0 °C 36.1 °F /  2.3 °C 30.4 in /  1030.0 hPa NNE 2.3 mph /  3.7 km/h 2.3 mph /  3.7 km/h 63 % 0 in /  0.0 mm
12:30 48.7 °F /  9.3 °C 36.3 °F /  2.4 °C 30.4 in /  1030.0 hPa ENE 2.3 mph /  3.7 km/h 2.3 mph /  3.7 km/h 62 % 0 in /  0.0 mm
12:35 48.9 °F /  9.4 °C 36.5 °F /  2.5 °C 30.4 in /  1030.0 hPa NE 2.6 mph /  4.2 km/h 2.6 mph /  4.2 km/h 62 % 0 in /  0.0 mm
12:40 48.9 °F /  9.4 °C 36.1 °F /  2.3 °C 30.4 in /  1030.0 hPa NNW 2.3 mph /  3.7 km/h 2.3 mph /  3.7 km/h 61 % 0 in /  0.0 mm
12:45 49.5 °F /  9.7 °C 36.7 °F /  2.6 °C 30.4 in /  1030.0 hPa ENE 2.9 mph /  4.7 km/h 2.9 mph /  4.7 km/h 61 % 0 in /  0.0 mm
12:50 49.5 °F /  9.7 °C 36.7 °F /  2.6 °C 30.4 in /  1030.0 hPa NE 4.6 mph /  7.4 km/h 4.6 mph /  7.4 km/h 61 % 0 in /  0.0 mm
12:55 49.6 °F /  9.8 °C 36.7 °F /  2.6 °C 30.4 in /  1030.0 hPa NNE 3.5 mph /  5.6 km/h 3.5 mph /  5.6 km/h 61 % 0 in /  0.0 mm
13:00 50 °F /  10.0 °C 36.7 °F /  2.6 °C 30.4 in /  1030.0 hPa NE 3.5 mph /  5.6 km/h 3.5 mph /  5.6 km/h 60 % 0 in /  0.0 mm
13:05 50.5 °F /  10.3 °C 37.2 °F /  2.9 °C 30.4 in /  1030.0 hPa NE 3.1 mph /  5.0 km/h 3.1 mph /  5.0 km/h 60 % 0 in /  0.0 mm
13:10 50.5 °F /  10.3 °C 37.2 °F /  2.9 °C 30.4 in /  1030.0 hPa NNE 4.6 mph /  7.4 km/h 4.6 mph /  7.4 km/h 60 % 0 in /  0.0 mm
13:15 50.5 °F /  10.3 °C 36.7 °F /  2.6 °C 30.4 in /  1029.0 hPa NNE 4.6 mph /  7.4 km/h 4.6 mph /  7.4 km/h 59 % 0 in /  0.0 mm
13:20 50.5 °F /  10.3 °C 36.7 °F /  2.6 °C 30.4 in /  1029.0 hPa NNE 4.6 mph /  7.4 km/h 4.6 mph /  7.4 km/h 59 % 0 in /  0.0 mm
13:25 50.5 °F /  10.3 °C 36.7 °F /  2.6 °C 30.4 in /  1029.0 hPa ENE 3.8 mph /  6.1 km/h 3.8 mph /  6.1 km/h 59 % 0 in /  0.0 mm
13:30 50.5 °F /  10.3 °C 36.3 °F /  2.4 °C 30.4 in /  1029.0 hPa NNE 4 mph /  6.4 km/h 4 mph /  6.4 km/h 58 % 0 in /  0.0 mm
13:35 50.7 °F /  10.4 °C 36.5 °F /  2.5 °C 30.4 in /  1029.0 hPa ENE 4.6 mph /  7.4 km/h 4.6 mph /  7.4 km/h 58 % 0 in /  0.0 mm
13:40 51.3 °F /  10.7 °C 37 °F /  2.8 °C 30.4 in /  1029.0 hPa ENE 2.3 mph /  3.7 km/h 2.3 mph /  3.7 km/h 58 % 0 in /  0.0 mm
13:45 51.8 °F /  11.0 °C 37.6 °F /  3.1 °C 30.4 in /  1029.0 hPa ENE 2.3 mph /  3.7 km/h 2.3 mph /  3.7 km/h 58 % 0 in /  0.0 mm
13:50 52.2 °F /  11.2 °C 37.8 °F /  3.2 °C 30.4 in /  1029.0 hPa NNE 3.5 mph /  5.6 km/h 3.5 mph /  5.6 km/h 58 % 0 in /  0.0 mm
13:55 52.3 °F /  11.3 °C 37.9 °F /  3.3 °C 30.4 in /  1029.0 hPa ENE 2.3 mph /  3.7 km/h 2.3 mph /  3.7 km/h 58 % 0 in /  0.0 mm
14:00 52.3 °F /  11.3 °C 37.9 °F /  3.3 °C 30.4 in /  1028.0 hPa North 2.3 mph /  3.7 km/h 2.6 mph /  4.2 km/h 58 % 0 in /  0.0 mm
14:05 52.5 °F /  11.4 °C 38.1 °F /  3.4 °C 30.4 in /  1028.0 hPa NNE 2.3 mph /  3.7 km/h 2.3 mph /  3.7 km/h 58 % 0 in /  0.0 mm
14:10 52.5 °F /  11.4 °C 38.1 °F /  3.4 °C 30.4 in /  1028.0 hPa NNE 2.3 mph /  3.7 km/h 2.3 mph /  3.7 km/h 58 % 0 in /  0.0 mm
14:15 52.7 °F /  11.5 °C 38.3 °F /  3.5 °C 30.4 in /  1028.0 hPa NNE 3.5 mph /  5.6 km/h 3.5 mph /  5.6 km/h 58 % 0 in /  0.0 mm
14:20 52.7 °F /  11.5 °C 38.3 °F /  3.5 °C 30.4 in /  1028.0 hPa NNE 4 mph /  6.4 km/h 4 mph /  6.4 km/h 58 % 0 in /  0.0 mm
14:25 52.7 °F /  11.5 °C 38.3 °F /  3.5 °C 30.4 in /  1028.0 hPa NE 4 mph /  6.4 km/h 4 mph /  6.4 km/h 58 % 0 in /  0.0 mm
14:30 52.5 °F /  11.4 °C 37.8 °F /  3.2 °C 30.4 in /  1028.0 hPa NNE 2.4 mph /  3.9 km/h 2.4 mph /  3.9 km/h 57 % 0 in /  0.0 mm
14:35 52.5 °F /  11.4 °C 38.1 °F /  3.4 °C 30.4 in /  1028.0 hPa NE 2 mph /  3.2 km/h 3 mph /  4.8 km/h 58 % 0 in /  0.0 mm
14:40 52.2 °F /  11.2 °C 37.4 °F /  3.0 °C 30.4 in /  1028.0 hPa NNE 3.5 mph /  5.6 km/h 3.5 mph /  5.6 km/h 57 % 0 in /  0.0 mm
14:45 52 °F /  11.1 °C 37.2 °F /  2.9 °C 30.4 in /  1028.0 hPa NE 2.3 mph /  3.7 km/h 2.3 mph /  3.7 km/h 57 % 0 in /  0.0 mm
14:50 52 °F /  11.1 °C 37.2 °F /  2.9 °C 30.4 in /  1028.0 hPa NNW 3.5 mph /  5.6 km/h 3.5 mph /  5.6 km/h 57 % 0 in /  0.0 mm
14:55 52.2 °F /  11.2 °C 37.4 °F /  3.0 °C 30.4 in /  1028.0 hPa NNE 2.9 mph /  4.7 km/h 2.9 mph /  4.7 km/h 57 % 0 in /  0.0 mm
15:00 52.3 °F /  11.3 °C 37.6 °F /  3.1 °C 30.4 in /  1028.0 hPa NE 1 mph /  1.6 km/h 4 mph /  6.4 km/h 57 % 0 in /  0.0 mm
15:05 52.5 °F /  11.4 °C 37.8 °F /  3.2 °C 30.4 in /  1028.0 hPa ENE 2.3 mph /  3.7 km/h 2.3 mph /  3.7 km/h 57 % 0 in /  0.0 mm
15:10 52.9 °F /  11.6 °C 38.1 °F /  3.4 °C 30.4 in /  1028.0 hPa NNE 1.2 mph /  1.9 km/h 1.2 mph /  1.9 km/h 57 % 0 in /  0.0 mm
15:15 53.1 °F /  11.7 °C 38.1 °F /  3.4 °C 30.4 in /  1028.0 hPa NNE 3 mph /  4.8 km/h 3 mph /  4.8 km/h 57 % 0 in /  0.0 mm
15:20 53.2 °F /  11.8 °C 38.5 °F /  3.6 °C 30.4 in /  1028.0 hPa NE 3.5 mph /  5.6 km/h 3.5 mph /  5.6 km/h 57 % 0 in /  0.0 mm
15:25 53.2 °F /  11.8 °C 38.5 °F /  3.6 °C 30.4 in /  1028.0 hPa NNE 2.3 mph /  3.7 km/h 2.3 mph /  3.7 km/h 57 % 0 in /  0.0 mm
15:30 53.4 °F /  11.9 °C 38.7 °F /  3.7 °C 30.4 in /  1028.0 hPa NNE 1 mph /  1.6 km/h 2 mph /  3.2 km/h 57 % 0 in /  0.0 mm
15:35 53.2 °F /  11.8 °C 38.5 °F /  3.6 °C 30.4 in /  1028.0 hPa ENE 2.6 mph /  4.2 km/h 2.6 mph /  4.2 km/h 57 % 0 in /  0.0 mm
15:40 53.2 °F /  11.8 °C 37.9 °F /  3.3 °C 30.4 in /  1028.0 hPa NNE 2.9 mph /  4.7 km/h 2.9 mph /  4.7 km/h 56 % 0 in /  0.0 mm
15:45 53.2 °F /  11.8 °C 38.5 °F /  3.6 °C 30.4 in /  1028.0 hPa NE 1 mph /  1.6 km/h 3 mph /  4.8 km/h 57 % 0 in /  0.0 mm
15:50 53.2 °F /  11.8 °C 38.5 °F /  3.6 °C 30.4 in /  1028.0 hPa NW 2.3 mph /  3.7 km/h 2.3 mph /  3.7 km/h 57 % 0 in /  0.0 mm
15:55 53.1 °F /  11.7 °C 37.8 °F /  3.2 °C 30.4 in /  1028.0 hPa NNE 1.2 mph /  1.9 km/h 1.2 mph /  1.9 km/h 56 % 0 in /  0.0 mm
16:00 53.1 °F /  11.7 °C 38.1 °F /  3.4 °C 30.4 in /  1028.0 hPa NNE 1.2 mph /  1.9 km/h 1.2 mph /  1.9 km/h 57 % 0 in /  0.0 mm
16:05 52.9 °F /  11.6 °C 38.1 °F /  3.4 °C 30.4 in /  1028.0 hPa North 1.2 mph /  1.9 km/h   57 % 0 in /  0.0 mm
16:10 52.9 °F /  11.6 °C 37.6 °F /  3.1 °C 30.4 in /  1028.0 hPa Calm     56 % 0 in /  0.0 mm
16:20 52.7 °F /  11.5 °C 37.9 °F /  3.3 °C 30.4 in /  1028.0 hPa West 1.2 mph /  1.9 km/h   57 % 0 in /  0.0 mm
16:25 52.3 °F /  11.3 °C 37 °F /  2.8 °C 30.4 in /  1028.0 hPa NW 2.3 mph /  3.7 km/h 2.3 mph /  3.7 km/h 56 % 0 in /  0.0 mm
16:30 52.2 °F /  11.2 °C 36.9 °F /  2.7 °C 30.4 in /  1028.0 hPa NNE 2.3 mph /  3.7 km/h 2.3 mph /  3.7 km/h 56 % 0 in /  0.0 mm
16:35 52 °F /  11.1 °C 36.9 °F /  2.7 °C 30.4 in /  1028.0 hPa North 1.2 mph /  1.9 km/h 1.2 mph /  1.9 km/h 56 % 0 in /  0.0 mm
16:40 52 °F /  11.1 °C 37.2 °F /  2.9 °C 30.4 in /  1028.0 hPa Calm     57 % 0 in /  0.0 mm
16:45 52 °F /  11.1 °C 37.2 °F /  2.9 °C 30.4 in /  1028.0 hPa NNW 1.2 mph /  1.9 km/h   57 % 0 in /  0.0 mm
16:50 51.8 °F /  11.0 °C 36.7 °F /  2.6 °C 30.4 in /  1028.0 hPa NNE 2.3 mph /  3.7 km/h   56 % 0 in /  0.0 mm
16:55 51.4 °F /  10.8 °C 36.3 °F /  2.4 °C 30.4 in /  1028.0 hPa North 0.9 mph /  1.4 km/h   56 % 0 in /  0.0 mm
17:00 51.3 °F /  10.7 °C 36.1 °F /  2.3 °C 30.4 in /  1028.0 hPa Calm     56 % 0 in /  0.0 mm
17:05 51.1 °F /  10.6 °C 36 °F /  2.2 °C 30.4 in /  1028.0 hPa NW 1.2 mph /  1.9 km/h   56 % 0 in /  0.0 mm
17:10 51.1 °F /  10.6 °C 36 °F /  2.2 °C 30.4 in /  1028.0 hPa NNE 1.2 mph /  1.9 km/h 1.2 mph /  1.9 km/h 56 % 0 in /  0.0 mm
17:15 50.9 °F /  10.5 °C 35.8 °F /  2.1 °C 30.4 in /  1028.0 hPa ENE 1.2 mph /  1.9 km/h   56 % 0 in /  0.0 mm
17:20 50.7 °F /  10.4 °C 35.6 °F /  2.0 °C 30.4 in /  1028.0 hPa North 1.2 mph /  1.9 km/h   56 % 0 in /  0.0 mm
17:25 50.5 °F /  10.3 °C 35.4 °F /  1.9 °C 30.4 in /  1028.0 hPa NW 2.3 mph /  3.7 km/h 2.3 mph /  3.7 km/h 56 % 0 in /  0.0 mm
17:30 50.5 °F /  10.3 °C 35.4 °F /  1.9 °C 30.4 in /  1028.0 hPa Calm     56 % 0 in /  0.0 mm
17:35 50.2 °F /  10.1 °C 35.1 °F /  1.7 °C 30.4 in /  1028.0 hPa West 2.3 mph /  3.7 km/h 2.3 mph /  3.7 km/h 56 % 0 in /  0.0 mm
17:40 49.8 °F /  9.9 °C 34.7 °F /  1.5 °C 30.4 in /  1028.0 hPa West 2.3 mph /  3.7 km/h 2.3 mph /  3.7 km/h 56 % 0 in /  0.0 mm
17:45 49.5 °F /  9.7 °C 34.9 °F /  1.6 °C 30.4 in /  1028.0 hPa WSW 2.3 mph /  3.7 km/h 2.3 mph /  3.7 km/h 57 % 0 in /  0.0 mm
17:50 49.5 °F /  9.7 °C 34.9 °F /  1.6 °C 30.4 in /  1028.0 hPa Calm     57 % 0 in /  0.0 mm
17:55 49.5 °F /  9.7 °C 34.9 °F /  1.6 °C 30.4 in /  1028.0 hPa Calm     57 % 0 in /  0.0 mm
18:00 49.5 °F /  9.7 °C 34.9 °F /  1.6 °C 30.4 in /  1028.0 hPa West 2.3 mph /  3.7 km/h 2.3 mph /  3.7 km/h 57 % 0 in /  0.0 mm
18:05 49.6 °F /  9.8 °C 35.1 °F /  1.7 °C 30.4 in /  1028.0 hPa West 1.2 mph /  1.9 km/h   57 % 0 in /  0.0 mm
18:10 49.6 °F /  9.8 °C 34.5 °F /  1.4 °C 30.4 in /  1028.0 hPa WSW 2.3 mph /  3.7 km/h   56 % 0 in /  0.0 mm
18:15 49.5 °F /  9.7 °C 34.3 °F /  1.3 °C 30.4 in /  1028.0 hPa Calm     56 % 0 in /  0.0 mm
18:20 49.3 °F /  9.6 °C 34.2 °F /  1.2 °C 30.4 in /  1028.0 hPa SW 1.6 mph /  2.6 km/h 1.6 mph /  2.6 km/h 56 % 0 in /  0.0 mm
18:25 48.9 °F /  9.4 °C 34 °F /  1.1 °C 30.4 in /  1028.0 hPa SW 2.3 mph /  3.7 km/h 2.3 mph /  3.7 km/h 56 % 0 in /  0.0 mm
18:30 48.6 °F /  9.2 °C 33.6 °F /  0.9 °C 30.4 in /  1028.0 hPa West 2.3 mph /  3.7 km/h 2.3 mph /  3.7 km/h 56 % 0 in /  0.0 mm
18:35 48.7 °F /  9.3 °C 33.6 °F /  0.9 °C 30.4 in /  1028.0 hPa West 2.3 mph /  3.7 km/h 2.3 mph /  3.7 km/h 56 % 0 in /  0.0 mm
18:40 48.9 °F /  9.4 °C 34 °F /  1.1 °C 30.4 in /  1028.0 hPa West 2.3 mph /  3.7 km/h 2.3 mph /  3.7 km/h 56 % 0 in /  0.0 mm
18:45 39.9 °F /  4.4 °C 26.2 °F /  -3.2 °C 30.3 in /  1026.0 hPa WSW 1 mph /  1.6 km/h 1 mph /  1.6 km/h 58 % 0 in /  0.0 mm
18:50 48.9 °F /  9.4 °C 34 °F /  1.1 °C 30.4 in /  1028.0 hPa SW 1.4 mph /  2.3 km/h 1.4 mph /  2.3 km/h 56 % 0 in /  0.0 mm
18:55 48.6 °F /  9.2 °C 33.1 °F /  0.6 °C 30.4 in /  1028.0 hPa SW 1.2 mph /  1.9 km/h   55 % 0 in /  0.0 mm
19:00 48.4 °F /  9.1 °C 32.9 °F /  0.5 °C 30.3 in /  1027.0 hPa Calm     55 % 0 in /  0.0 mm
19:05 48 °F /  8.9 °C 32.5 °F /  0.3 °C 30.3 in /  1027.0 hPa SW 0.9 mph /  1.4 km/h   55 % 0 in /  0.0 mm
19:10 47.7 °F /  8.7 °C 32.7 °F /  0.4 °C 30.3 in /  1027.0 hPa SW 1.4 mph /  2.3 km/h 1.4 mph /  2.3 km/h 56 % 0 in /  0.0 mm
19:15 47.5 °F /  8.6 °C 32.5 °F /  0.3 °C 30.4 in /  1028.0 hPa Calm   1.4 mph /  2.3 km/h 56 % 0 in /  0.0 mm
19:20 47.5 °F /  8.6 °C 32.5 °F /  0.3 °C 30.4 in /  1028.0 hPa SW 1.4 mph /  2.3 km/h 1.6 mph /  2.6 km/h 56 % 0 in /  0.0 mm
19:25 47.3 °F /  8.5 °C 31.8 °F /  -0.1 °C 30.4 in /  1028.0 hPa Calm     55 % 0 in /  0.0 mm
19:30 47.3 °F /  8.5 °C 31.8 °F /  -0.1 °C 30.3 in /  1027.0 hPa Calm     55 % 0 in /  0.0 mm
19:35 47.3 °F /  8.5 °C 31.8 °F /  -0.1 °C 30.3 in /  1027.0 hPa SW 2.3 mph /  3.7 km/h 2.3 mph /  3.7 km/h 55 % 0 in /  0.0 mm
19:40 47.1 °F /  8.4 °C 31.8 °F /  -0.1 °C 30.3 in /  1027.0 hPa WSW 2.3 mph /  3.7 km/h 2.3 mph /  3.7 km/h 55 % 0 in /  0.0 mm
19:45 47.1 °F /  8.4 °C 31.8 °F /  -0.1 °C 30.3 in /  1027.0 hPa WSW 2.3 mph /  3.7 km/h 2.3 mph /  3.7 km/h 55 % 0 in /  0.0 mm
19:50 47.1 °F /  8.4 °C 31.8 °F /  -0.1 °C 30.3 in /  1027.0 hPa WSW 2.3 mph /  3.7 km/h 2.3 mph /  3.7 km/h 55 % 0 in /  0.0 mm
19:55 46.9 °F /  8.3 °C 31.6 °F /  -0.2 °C 30.3 in /  1027.0 hPa WSW 2.4 mph /  3.9 km/h 2.4 mph /  3.9 km/h 55 % 0 in /  0.0 mm
20:00 46.8 °F /  8.2 °C 31.5 °F /  -0.3 °C 30.3 in /  1027.0 hPa WSW 2.3 mph /  3.7 km/h 2.3 mph /  3.7 km/h 55 % 0 in /  0.0 mm
20:05 46.8 °F /  8.2 °C 31.5 °F /  -0.3 °C 30.3 in /  1027.0 hPa WSW 1.2 mph /  1.9 km/h 1.2 mph /  1.9 km/h 55 % 0 in /  0.0 mm
20:10 46.8 °F /  8.2 °C 31.5 °F /  -0.3 °C 30.3 in /  1027.0 hPa WSW 2.2 mph /  3.5 km/h 2.2 mph /  3.5 km/h 55 % 0 in /  0.0 mm
20:15 46.8 °F /  8.2 °C 31.5 °F /  -0.3 °C 30.3 in /  1027.0 hPa WNW 2.3 mph /  3.7 km/h 2.3 mph /  3.7 km/h 55 % 0 in /  0.0 mm
20:20 46.6 °F /  8.1 °C 31.3 °F /  -0.4 °C 30.3 in /  1027.0 hPa West 2.3 mph /  3.7 km/h 2.3 mph /  3.7 km/h 55 % 0 in /  0.0 mm
20:25 46.2 °F /  7.9 °C 30.9 °F /  -0.6 °C 30.3 in /  1027.0 hPa SW 2.3 mph /  3.7 km/h 2.3 mph /  3.7 km/h 55 % 0 in /  0.0 mm
20:30 45.7 °F /  7.6 °C 30.4 °F /  -0.9 °C 30.3 in /  1027.0 hPa WSW 2.3 mph /  3.7 km/h 2.3 mph /  3.7 km/h 55 % 0 in /  0.0 mm
20:35 45.5 °F /  7.5 °C 30.4 °F /  -0.9 °C 30.3 in /  1027.0 hPa Calm     55 % 0 in /  0.0 mm
20:40 45.5 °F /  7.5 °C 30.4 °F /  -0.9 °C 30.3 in /  1027.0 hPa Calm     55 % 0 in /  0.0 mm
20:45 45.3 °F /  7.4 °C 30 °F /  -1.1 °C 30.4 in /  1028.0 hPa SW 2.3 mph /  3.7 km/h 2.3 mph /  3.7 km/h 55 % 0 in /  0.0 mm
20:50 45.3 °F /  7.4 °C 30 °F /  -1.1 °C 30.4 in /  1028.0 hPa West 1.6 mph /  2.6 km/h 1.6 mph /  2.6 km/h 55 % 0 in /  0.0 mm
20:55 45.3 °F /  7.4 °C 30 °F /  -1.1 °C 30.4 in /  1028.0 hPa WSW 2.3 mph /  3.7 km/h 2.3 mph /  3.7 km/h 55 % 0 in /  0.0 mm
21:00 45.1 °F /  7.3 °C 29.8 °F /  -1.2 °C 30.3 in /  1027.0 hPa West 1.2 mph /  1.9 km/h 1.2 mph /  1.9 km/h 55 % 0 in /  0.0 mm
21:05 45 °F /  7.2 °C 29.8 °F /  -1.2 °C 30.3 in /  1027.0 hPa Calm     55 % 0 in /  0.0 mm
21:10 44.6 °F /  7.0 °C 29.5 °F /  -1.4 °C 30.3 in /  1027.0 hPa Calm     55 % 0 in /  0.0 mm
21:15 44.6 °F /  7.0 °C 29.5 °F /  -1.4 °C 30.3 in /  1027.0 hPa WNW 1.4 mph /  2.3 km/h   55 % 0 in /  0.0 mm
21:20 44.6 °F /  7.0 °C 29.5 °F /  -1.4 °C 30.3 in /  1027.0 hPa ENE 2.3 mph /  3.7 km/h 2.3 mph /  3.7 km/h 55 % 0 in /  0.0 mm
21:25 44.4 °F /  6.9 °C 29.1 °F /  -1.6 °C 30.3 in /  1027.0 hPa ENE 1.2 mph /  1.9 km/h 1.2 mph /  1.9 km/h 55 % 0 in /  0.0 mm
21:30 44.2 °F /  6.8 °C 29.1 °F /  -1.6 °C 30.3 in /  1027.0 hPa SW 2.3 mph /  3.7 km/h 2.3 mph /  3.7 km/h 55 % 0 in /  0.0 mm
21:35 44.1 °F /  6.7 °C 28.9 °F /  -1.7 °C 30.3 in /  1027.0 hPa WSW 2.3 mph /  3.7 km/h 2.3 mph /  3.7 km/h 55 % 0 in /  0.0 mm
21:40 44.1 °F /  6.7 °C 28.9 °F /  -1.7 °C 30.3 in /  1027.0 hPa WSW 2.3 mph /  3.7 km/h 2.3 mph /  3.7 km/h 55 % 0 in /  0.0 mm
21:45 43.7 °F /  6.5 °C 28.6 °F /  -1.9 °C 30.3 in /  1027.0 hPa WSW 2.2 mph /  3.5 km/h 2.2 mph /  3.5 km/h 55 % 0 in /  0.0 mm
21:50 43.5 °F /  6.4 °C 28.4 °F /  -2.0 °C 30.3 in /  1027.0 hPa Calm     55 % 0 in /  0.0 mm
21:55 43.5 °F /  6.4 °C 28.4 °F /  -2.0 °C 30.3 in /  1027.0 hPa Calm     55 % 0 in /  0.0 mm
22:00 43.2 °F /  6.2 °C 28 °F /  -2.2 °C 30.3 in /  1027.0 hPa SW 1.4 mph /  2.3 km/h 1.4 mph /  2.3 km/h 55 % 0 in /  0.0 mm
22:05 43 °F /  6.1 °C 27.9 °F /  -2.3 °C 30.3 in /  1027.0 hPa SW 1.2 mph /  1.9 km/h 1.2 mph /  1.9 km/h 55 % 0 in /  0.0 mm
22:10 42.8 °F /  6.0 °C 28.2 °F /  -2.1 °C 30.3 in /  1027.0 hPa Calm     56 % 0 in /  0.0 mm
22:15 42.8 °F /  6.0 °C 28.2 °F /  -2.1 °C 30.3 in /  1027.0 hPa Calm     56 % 0 in /  0.0 mm
22:20 42.6 °F /  5.9 °C 28 °F /  -2.2 °C 30.3 in /  1027.0 hPa SW 1.2 mph /  1.9 km/h 1.2 mph /  1.9 km/h 56 % 0 in /  0.0 mm
22:25 42.4 °F /  5.8 °C 27.9 °F /  -2.3 °C 30.3 in /  1027.0 hPa Calm     56 % 0 in /  0.0 mm
22:30 42.4 °F /  5.8 °C 27.9 °F /  -2.3 °C 30.3 in /  1027.0 hPa SW 1.2 mph /  1.9 km/h   56 % 0 in /  0.0 mm
22:35 42.3 °F /  5.7 °C 27.7 °F /  -2.4 °C 30.3 in /  1027.0 hPa SW 2.3 mph /  3.7 km/h 2.3 mph /  3.7 km/h 56 % 0 in /  0.0 mm
22:40 42.1 °F /  5.6 °C 27.9 °F /  -2.3 °C 30.3 in /  1027.0 hPa Calm     57 % 0 in /  0.0 mm
22:45 42.1 °F /  5.6 °C 27.5 °F /  -2.5 °C 30.3 in /  1026.0 hPa WNW 2.3 mph /  3.7 km/h 2.3 mph /  3.7 km/h 56 % 0 in /  0.0 mm
22:50 42.4 °F /  5.8 °C 27.9 °F /  -2.3 °C 30.3 in /  1026.0 hPa West 2.3 mph /  3.7 km/h 2.3 mph /  3.7 km/h 56 % 0 in /  0.0 mm
22:55 42.1 °F /  5.6 °C 27.5 °F /  -2.5 °C 30.3 in /  1026.0 hPa West 0.9 mph /  1.4 km/h   56 % 0 in /  0.0 mm
23:00 41.9 °F /  5.5 °C 27.3 °F /  -2.6 °C 30.3 in /  1026.0 hPa West 2.4 mph /  3.9 km/h 2.4 mph /  3.9 km/h 56 % 0 in /  0.0 mm
23:05 42.1 °F /  5.6 °C 27.5 °F /  -2.5 °C 30.3 in /  1026.0 hPa West 1.6 mph /  2.6 km/h 1.6 mph /  2.6 km/h 56 % 0 in /  0.0 mm
23:10 42.4 °F /  5.8 °C 27.9 °F /  -2.3 °C 30.3 in /  1026.0 hPa West 1.4 mph /  2.3 km/h 1.4 mph /  2.3 km/h 56 % 0 in /  0.0 mm
23:15 42.1 °F /  5.6 °C 27.5 °F /  -2.5 °C 30.3 in /  1026.0 hPa West 2.3 mph /  3.7 km/h 2.3 mph /  3.7 km/h 56 % 0 in /  0.0 mm
23:20 42.1 °F /  5.6 °C 27.5 °F /  -2.5 °C 30.3 in /  1026.0 hPa West 1.2 mph /  1.9 km/h 1.4 mph /  2.3 km/h 56 % 0 in /  0.0 mm
23:25 42.3 °F /  5.7 °C 27.7 °F /  -2.4 °C 30.3 in /  1026.0 hPa NW 1.2 mph /  1.9 km/h 1.2 mph /  1.9 km/h 56 % 0 in /  0.0 mm
23:30 42.3 °F /  5.7 °C 27.7 °F /  -2.4 °C 30.3 in /  1026.0 hPa Calm     56 % 0 in /  0.0 mm
23:35 42.1 °F /  5.6 °C 27.5 °F /  -2.5 °C 30.3 in /  1026.0 hPa NNE 3.5 mph /  5.6 km/h 3.5 mph /  5.6 km/h 56 % 0 in /  0.0 mm
23:40 41.7 °F /  5.4 °C 27.1 °F /  -2.7 °C 30.3 in /  1026.0 hPa NNW 1.4 mph /  2.3 km/h   56 % 0 in /  0.0 mm
23:45 41.9 °F /  5.5 °C 27.3 °F /  -2.6 °C 30.3 in /  1026.0 hPa WNW 1.2 mph /  1.9 km/h 1.2 mph /  1.9 km/h 56 % 0 in /  0.0 mm
23:50 41.9 °F /  5.5 °C 27.3 °F /  -2.6 °C 30.3 in /  1026.0 hPa South 2.3 mph /  3.7 km/h 2.3 mph /  3.7 km/h 56 % 0 in /  0.0 mm
23:55 41.4 °F /  5.2 °C 26.8 °F /  -2.9 °C 30.3 in /  1026.0 hPa Calm     56 % 0 in /  0.0 mm
Meteo Sesrovires
Elogis d' Weather Underground - 3.5 mb

Guio original per  Jim McMurry - jmcmurry@mwt.net Adaptat per a la plantilla per  Wim van der Kuil - Leuven-Template.eu

Trobareu la nostra informacio del temps tambe a:

Weather Underground

AWEKAS